sensor_id;sensor_type;location;lat;lon;timestamp;pressure;altitude;pressure_sealevel;temperature;humidity
66164;BME280;52962;51.088;3.096;2022-07-05T00:01:30;101873.06;;;16.83;100.00
66164;BME280;52962;51.088;3.096;2022-07-05T00:03:58;101873.00;;;16.77;100.00
66164;BME280;52962;51.088;3.096;2022-07-05T00:06:26;101875.66;;;16.75;100.00
66164;BME280;52962;51.088;3.096;2022-07-05T00:08:54;101882.69;;;16.72;100.00
66164;BME280;52962;51.088;3.096;2022-07-05T00:11:23;101873.75;;;16.65;100.00
66164;BME280;52962;51.088;3.096;2022-07-05T00:13:51;101871.06;;;16.62;100.00
66164;BME280;52962;51.088;3.096;2022-07-05T00:16:19;101871.91;;;16.59;100.00
66164;BME280;52962;51.088;3.096;2022-07-05T00:18:47;101867.44;;;16.55;100.00
66164;BME280;52962;51.088;3.096;2022-07-05T00:21:15;101874.44;;;16.50;100.00
66164;BME280;52962;51.088;3.096;2022-07-05T00:23:43;101869.97;;;16.46;100.00
66164;BME280;52962;51.088;3.096;2022-07-05T00:26:12;101866.34;;;16.40;100.00
66164;BME280;52962;51.088;3.096;2022-07-05T00:28:42;101855.72;;;16.40;100.00
66164;BME280;52962;51.088;3.096;2022-07-05T00:31:10;101861.00;;;16.38;100.00
66164;BME280;52962;51.088;3.096;2022-07-05T00:33:38;101869.78;;;16.32;100.00
66164;BME280;52962;51.088;3.096;2022-07-05T00:36:06;101859.13;;;16.29;100.00
66164;BME280;52962;51.088;3.096;2022-07-05T00:38:34;101860.81;;;16.24;100.00
66164;BME280;52962;51.088;3.096;2022-07-05T00:41:02;101861.66;;;16.20;100.00
66164;BME280;52962;51.088;3.096;2022-07-05T00:43:30;101861.63;;;16.17;100.00
66164;BME280;52962;51.088;3.096;2022-07-05T00:45:59;101855.34;;;16.12;100.00
66164;BME280;52962;51.088;3.096;2022-07-05T00:48:27;101854.41;;;16.09;100.00
66164;BME280;52962;51.088;3.096;2022-07-05T00:50:55;101854.38;;;16.07;100.00
66164;BME280;52962;51.088;3.096;2022-07-05T00:53:23;101860.56;;;16.06;100.00
66164;BME280;52962;51.088;3.096;2022-07-05T00:55:50;101856.97;;;16.02;100.00
66164;BME280;52962;51.088;3.096;2022-07-05T00:58:18;101857.00;;;16.04;100.00
66164;BME280;52962;51.088;3.096;2022-07-05T01:00:46;101856.91;;;15.98;100.00
66164;BME280;52962;51.088;3.096;2022-07-05T01:03:15;101860.41;;;15.94;100.00
66164;BME280;52962;51.088;3.096;2022-07-05T01:05:43;101855.94;;;15.93;100.00
66164;BME280;52962;51.088;3.096;2022-07-05T01:08:12;101861.25;;;15.91;100.00
66164;BME280;52962;51.088;3.096;2022-07-05T01:10:41;101862.97;;;15.89;100.00
66164;BME280;52962;51.088;3.096;2022-07-05T01:13:09;101870.03;;;15.87;100.00
66164;BME280;52962;51.088;3.096;2022-07-05T01:15:38;101871.72;;;15.82;100.00
66164;BME280;52962;51.088;3.096;2022-07-05T01:18:07;101864.59;;;15.78;100.00
66164;BME280;52962;51.088;3.096;2022-07-05T01:20:36;101866.31;;;15.76;100.00
66164;BME280;52962;51.088;3.096;2022-07-05T01:23:06;101868.06;;;15.74;100.00
66164;BME280;52962;51.088;3.096;2022-07-05T01:25:34;101855.59;;;15.70;100.00
66164;BME280;52962;51.088;3.096;2022-07-05T01:28:03;101867.06;;;15.67;100.00
66164;BME280;52962;51.088;3.096;2022-07-05T01:30:33;101868.75;;;15.59;100.00
66164;BME280;52962;51.088;3.096;2022-07-05T01:33:05;101865.16;;;15.57;100.00
66164;BME280;52962;51.088;3.096;2022-07-05T01:35:34;101864.28;;;15.57;100.00
66164;BME280;52962;51.088;3.096;2022-07-05T01:38:02;101866.94;;;15.57;100.00
66164;BME280;52962;51.088;3.096;2022-07-05T01:40:32;101865.03;;;15.51;100.00
66164;BME280;52962;51.088;3.096;2022-07-05T01:43:00;101870.31;;;15.50;100.00
66164;BME280;52962;51.088;3.096;2022-07-05T01:45:28;101860.59;;;15.50;100.00
66164;BME280;52962;51.088;3.096;2022-07-05T01:48:10;101865.94;;;15.52;100.00
66164;BME280;52962;51.088;3.096;2022-07-05T01:50:41;101856.16;;;15.49;100.00
66164;BME280;52962;51.088;3.096;2022-07-05T01:53:11;101863.19;;;15.46;100.00
66164;BME280;52962;51.088;3.096;2022-07-05T01:55:43;101869.34;;;15.45;100.00
66164;BME280;52962;51.088;3.096;2022-07-05T01:58:11;101860.50;;;15.44;100.00
66164;BME280;52962;51.088;3.096;2022-07-05T02:00:46;101860.50;;;15.44;100.00
66164;BME280;52962;51.088;3.096;2022-07-05T02:03:15;101868.44;;;15.43;100.00
66164;BME280;52962;51.088;3.096;2022-07-05T02:06:03;101858.69;;;15.42;100.00
66164;BME280;52962;51.088;3.096;2022-07-05T02:08:32;101853.38;;;15.42;100.00
66164;BME280;52962;51.088;3.096;2022-07-05T02:11:02;101851.63;;;15.42;100.00
66164;BME280;52962;51.088;3.096;2022-07-05T02:13:30;101851.59;;;15.41;100.00
66164;BME280;52962;51.088;3.096;2022-07-05T02:15:58;101851.56;;;15.39;100.00
66164;BME280;52962;51.088;3.096;2022-07-05T02:18:26;101842.78;;;15.43;100.00
66164;BME280;52962;51.088;3.096;2022-07-05T02:20:54;101843.66;;;15.42;100.00
66164;BME280;52962;51.088;3.096;2022-07-05T02:23:22;101845.47;;;15.45;100.00
66164;BME280;52962;51.088;3.096;2022-07-05T02:25:50;101842.81;;;15.45;100.00
66164;BME280;52962;51.088;3.096;2022-07-05T02:28:19;101840.13;;;15.43;100.00
66164;BME280;52962;51.088;3.096;2022-07-05T02:30:47;101840.06;;;15.40;100.00
66164;BME280;52962;51.088;3.096;2022-07-05T02:33:15;101848.84;;;15.36;100.00
66164;BME280;52962;51.088;3.096;2022-07-05T02:35:43;101843.50;;;15.33;100.00
66164;BME280;52962;51.088;3.096;2022-07-05T02:38:11;101843.53;;;15.34;100.00
66164;BME280;52962;51.088;3.096;2022-07-05T02:40:39;101838.19;;;15.33;100.00
66164;BME280;52962;51.088;3.096;2022-07-05T02:43:07;101841.66;;;15.29;100.00
66164;BME280;52962;51.088;3.096;2022-07-05T02:45:36;101846.84;;;15.23;100.00
66164;BME280;52962;51.088;3.096;2022-07-05T02:48:04;101844.16;;;15.20;100.00
66164;BME280;52962;51.088;3.096;2022-07-05T02:50:32;101849.44;;;15.18;100.00
66164;BME280;52962;51.088;3.096;2022-07-05T02:53:00;101852.00;;;15.14;100.00
66164;BME280;52962;51.088;3.096;2022-07-05T02:55:27;101849.34;;;15.14;100.00
66164;BME280;52962;51.088;3.096;2022-07-05T02:57:55;101849.31;;;15.12;100.00
66164;BME280;52962;51.088;3.096;2022-07-05T03:00:24;101856.38;;;15.12;100.00
66164;BME280;52962;51.088;3.096;2022-07-05T03:02:53;101853.75;;;15.12;100.00
66164;BME280;52962;51.088;3.096;2022-07-05T03:05:21;101853.69;;;15.09;100.00
66164;BME280;52962;51.088;3.096;2022-07-05T03:07:49;101851.84;;;15.04;100.00
66164;BME280;52962;51.088;3.096;2022-07-05T03:10:17;101857.97;;;15.02;100.00
66164;BME280;52962;51.088;3.096;2022-07-05T03:12:45;101855.31;;;15.00;100.00
66164;BME280;52962;51.088;3.096;2022-07-05T03:15:12;101865.84;;;14.97;100.00
66164;BME280;52962;51.088;3.096;2022-07-05T03:17:41;101864.00;;;14.93;100.00
66164;BME280;52962;51.088;3.096;2022-07-05T03:20:11;101870.25;;;14.95;100.00
66164;BME280;52962;51.088;3.096;2022-07-05T03:22:39;101867.59;;;14.95;100.00
66164;BME280;52962;51.088;3.096;2022-07-05T03:25:07;101871.16;;;14.97;100.00
66164;BME280;52962;51.088;3.096;2022-07-05T03:27:35;101872.06;;;14.98;100.00
66164;BME280;52962;51.088;3.096;2022-07-05T03:30:04;101874.69;;;14.96;100.00
66164;BME280;52962;51.088;3.096;2022-07-05T03:32:32;101879.03;;;14.93;100.00
66164;BME280;52962;51.088;3.096;2022-07-05T03:35:00;101871.03;;;14.91;100.00
66164;BME280;52962;51.088;3.096;2022-07-05T03:37:29;101873.69;;;14.91;100.00
66164;BME280;52962;51.088;3.096;2022-07-05T03:39:57;101871.03;;;14.91;100.00
66164;BME280;52962;51.088;3.096;2022-07-05T03:42:25;101876.34;;;14.91;100.00
66164;BME280;52962;51.088;3.096;2022-07-05T03:44:53;101876.34;;;14.91;100.00
66164;BME280;52962;51.088;3.096;2022-07-05T03:47:21;101886.97;;;14.91;100.00
66164;BME280;52962;51.088;3.096;2022-07-05T03:49:49;101883.41;;;14.91;100.00
66164;BME280;52962;51.088;3.096;2022-07-05T03:52:16;101879.00;;;14.91;100.00
66164;BME280;52962;51.088;3.096;2022-07-05T03:54:52;101877.19;;;14.89;100.00
66164;BME280;52962;51.088;3.096;2022-07-05T03:57:20;101878.94;;;14.88;100.00
66164;BME280;52962;51.088;3.096;2022-07-05T03:59:48;101882.44;;;14.86;100.00
66164;BME280;52962;51.088;3.096;2022-07-05T04:02:16;101882.44;;;14.86;100.00
66164;BME280;52962;51.088;3.096;2022-07-05T04:04:44;101877.09;;;14.84;100.00
66164;BME280;52962;51.088;3.096;2022-07-05T04:07:12;101879.75;;;14.84;100.00
66164;BME280;52962;51.088;3.096;2022-07-05T04:09:39;101878.84;;;14.84;100.00
66164;BME280;52962;51.088;3.096;2022-07-05T04:12:10;101882.41;;;14.84;100.00
66164;BME280;52962;51.088;3.096;2022-07-05T04:14:37;101878.91;;;14.87;100.00
66164;BME280;52962;51.088;3.096;2022-07-05T04:17:05;101879.88;;;14.90;100.00
66164;BME280;52962;51.088;3.096;2022-07-05T04:19:33;101886.09;;;14.92;100.00
66164;BME280;52962;51.088;3.096;2022-07-05T04:22:01;101883.50;;;14.95;100.00
66164;BME280;52962;51.088;3.096;2022-07-05T04:24:29;101897.69;;;14.97;100.00
66164;BME280;52962;51.088;3.096;2022-07-05T04:26:57;101888.88;;;14.98;100.00
66164;BME280;52962;51.088;3.096;2022-07-05T04:29:26;101900.41;;;15.00;100.00
66164;BME280;52962;51.088;3.096;2022-07-05T04:31:54;101906.56;;;14.99;100.00
66164;BME280;52962;51.088;3.096;2022-07-05T04:34:22;101907.50;;;15.01;100.00
66164;BME280;52962;51.088;3.096;2022-07-05T04:36:50;101910.16;;;15.01;100.00
66164;BME280;52962;51.088;3.096;2022-07-05T04:39:18;101912.78;;;15.00;100.00
66164;BME280;52962;51.088;3.096;2022-07-05T04:41:46;101915.44;;;15.01;100.00
66164;BME280;52962;51.088;3.096;2022-07-05T04:44:14;101916.44;;;15.07;100.00
66164;BME280;52962;51.088;3.096;2022-07-05T04:46:44;101910.31;;;15.11;100.00
66164;BME280;52962;51.088;3.096;2022-07-05T04:49:11;101909.47;;;15.13;100.00
66164;BME280;52962;51.088;3.096;2022-07-05T04:51:39;101917.47;;;15.15;100.00
66164;BME280;52962;51.088;3.096;2022-07-05T04:54:12;101917.53;;;15.18;100.00
66164;BME280;52962;51.088;3.096;2022-07-05T04:56:40;101918.44;;;15.18;100.00
66164;BME280;52962;51.088;3.096;2022-07-05T04:59:08;101916.69;;;15.20;100.00
66164;BME280;52962;51.088;3.096;2022-07-05T05:01:36;101918.50;;;15.23;100.00
66164;BME280;52962;51.088;3.096;2022-07-05T05:04:05;101920.25;;;15.22;100.00
66164;BME280;52962;51.088;3.096;2022-07-05T05:06:33;101922.09;;;15.25;100.00
66164;BME280;52962;51.088;3.096;2022-07-05T05:09:01;101919.44;;;15.25;100.00
66164;BME280;52962;51.088;3.096;2022-07-05T05:11:29;101922.13;;;15.28;100.00
66164;BME280;52962;51.088;3.096;2022-07-05T05:13:57;101927.53;;;15.32;100.00
66164;BME280;52962;51.088;3.096;2022-07-05T05:16:25;101924.06;;;15.36;100.00
66164;BME280;52962;51.088;3.096;2022-07-05T05:18:52;101923.25;;;15.41;100.00
66164;BME280;52962;51.088;3.096;2022-07-05T05:21:22;101921.50;;;15.41;100.00
66164;BME280;52962;51.088;3.096;2022-07-05T05:23:49;101927.69;;;15.42;100.00
66164;BME280;52962;51.088;3.096;2022-07-05T05:26:17;101926.81;;;15.41;100.00
66164;BME280;52962;51.088;3.096;2022-07-05T05:28:45;101932.16;;;15.44;100.00
66164;BME280;52962;51.088;3.096;2022-07-05T05:31:13;101938.41;;;15.46;100.00
66164;BME280;52962;51.088;3.096;2022-07-05T05:33:41;101938.41;;;15.46;100.00
66164;BME280;52962;51.088;3.096;2022-07-05T05:36:09;101944.63;;;15.48;100.00
66164;BME280;52962;51.088;3.096;2022-07-05T05:38:38;101937.59;;;15.50;100.00
66164;BME280;52962;51.088;3.096;2022-07-05T05:41:07;101938.63;;;15.57;100.00
66164;BME280;52962;51.088;3.096;2022-07-05T05:43:34;101944.91;;;15.63;100.00
66164;BME280;52962;51.088;3.096;2022-07-05T05:46:02;101949.44;;;15.70;100.00
66164;BME280;52962;51.088;3.096;2022-07-05T05:48:30;101946.91;;;15.77;100.00
66164;BME280;52962;51.088;3.096;2022-07-05T05:50:58;101952.31;;;15.83;100.00
66164;BME280;52962;51.088;3.096;2022-07-05T05:53:27;101952.38;;;15.87;100.00
66164;BME280;52962;51.088;3.096;2022-07-05T05:55:57;101948.88;;;15.90;100.00
66164;BME280;52962;51.088;3.096;2022-07-05T05:58:25;101955.09;;;15.90;100.00
66164;BME280;52962;51.088;3.096;2022-07-05T06:00:53;101956.84;;;15.90;100.00
66164;BME280;52962;51.088;3.096;2022-07-05T06:03:22;101964.84;;;15.91;100.00
66164;BME280;52962;51.088;3.096;2022-07-05T06:05:50;101961.41;;;15.97;100.00
66164;BME280;52962;51.088;3.096;2022-07-05T06:08:18;101953.66;;;16.12;100.00
66164;BME280;52962;51.088;3.096;2022-07-05T06:10:46;101954.84;;;16.32;100.00
66164;BME280;52962;51.088;3.096;2022-07-05T06:13:22;101954.25;;;16.52;100.00
66164;BME280;52962;51.088;3.096;2022-07-05T06:15:50;101960.66;;;16.66;100.00
66164;BME280;52962;51.088;3.096;2022-07-05T06:18:17;101955.56;;;16.84;100.00
66164;BME280;52962;51.088;3.096;2022-07-05T06:20:45;101957.56;;;17.04;100.00
66164;BME280;52962;51.088;3.096;2022-07-05T06:23:13;101956.00;;;17.22;100.00
66164;BME280;52962;51.088;3.096;2022-07-05T06:25:41;101958.03;;;17.46;100.00
66164;BME280;52962;51.088;3.096;2022-07-05T06:28:09;101958.16;;;17.60;100.00
66164;BME280;52962;51.088;3.096;2022-07-05T06:30:39;101958.19;;;17.63;100.00
66164;BME280;52962;51.088;3.096;2022-07-05T06:33:07;101958.34;;;17.80;100.00
66164;BME280;52962;51.088;3.096;2022-07-05T06:35:35;101963.69;;;17.81;100.00
66164;BME280;52962;51.088;3.096;2022-07-05T06:38:04;101977.94;;;17.86;100.00
66164;BME280;52962;51.088;3.096;2022-07-05T06:40:33;101973.66;;;18.07;100.00
66164;BME280;52962;51.088;3.096;2022-07-05T06:43:04;101971.28;;;18.51;100.00
66164;BME280;52962;51.088;3.096;2022-07-05T06:45:32;101975.00;;;18.83;100.00
66164;BME280;52962;51.088;3.096;2022-07-05T06:48:01;101975.13;;;19.14;100.00
66164;BME280;52962;51.088;3.096;2022-07-05T06:50:31;101980.56;;;19.41;100.00
66164;BME280;52962;51.088;3.096;2022-07-05T06:52:59;101980.56;;;19.41;100.00
66164;BME280;52962;51.088;3.096;2022-07-05T06:55:27;101985.81;;;19.14;100.00
66164;BME280;52962;51.088;3.096;2022-07-05T06:57:57;101991.13;;;19.05;100.00
66164;BME280;52962;51.088;3.096;2022-07-05T07:00:41;101981.41;;;19.30;100.00
66164;BME280;52962;51.088;3.096;2022-07-05T07:03:31;101991.31;;;19.66;100.00
66164;BME280;52962;51.088;3.096;2022-07-05T07:06:19;101986.84;;;19.95;100.00
66164;BME280;52962;51.088;3.096;2022-07-05T07:08:47;101987.72;;;20.12;100.00
66164;BME280;52962;51.088;3.096;2022-07-05T07:11:32;101988.63;;;20.39;100.00
66164;BME280;52962;51.088;3.096;2022-07-05T07:14:00;101985.88;;;20.68;100.00
66164;BME280;52962;51.088;3.096;2022-07-05T07:16:28;101982.31;;;20.64;100.00
66164;BME280;52962;51.088;3.096;2022-07-05T07:18:58;101978.72;;;20.77;100.00
66164;BME280;52962;51.088;3.096;2022-07-05T07:21:42;101988.47;;;20.84;100.00
66164;BME280;52962;51.088;3.096;2022-07-05T07:24:10;101986.78;;;20.62;100.00
66164;BME280;52962;51.088;3.096;2022-07-05T07:26:38;101988.59;;;20.54;100.00
66164;BME280;52962;51.088;3.096;2022-07-05T07:29:24;101995.75;;;20.38;100.00
66164;BME280;52962;51.088;3.096;2022-07-05T07:31:52;101997.53;;;20.18;100.00
66164;BME280;52962;51.088;3.096;2022-07-05T07:34:21;102007.34;;;19.99;100.00
66164;BME280;52962;51.088;3.096;2022-07-05T07:36:50;102012.69;;;19.96;100.00
66164;BME280;52962;51.088;3.096;2022-07-05T07:39:18;102014.47;;;20.47;100.00
66164;BME280;52962;51.088;3.096;2022-07-05T07:41:46;102005.38;;;20.93;100.00
66164;BME280;52962;51.088;3.096;2022-07-05T07:44:15;102005.28;;;21.23;100.00
66164;BME280;52962;51.088;3.096;2022-07-05T07:46:43;102018.75;;;20.99;100.00
66164;BME280;52962;51.088;3.096;2022-07-05T07:49:11;102014.34;;;20.81;100.00
66164;BME280;52962;51.088;3.096;2022-07-05T07:51:41;102009.75;;;21.13;100.00
66164;BME280;52962;51.088;3.096;2022-07-05T07:54:09;102014.94;;;21.51;100.00
66164;BME280;52962;51.088;3.096;2022-07-05T07:56:40;102017.53;;;21.67;100.00
66164;BME280;52962;51.088;3.096;2022-07-05T07:59:09;102017.72;;;21.36;100.00
66164;BME280;52962;51.088;3.096;2022-07-05T08:01:37;102027.66;;;21.05;100.00
66164;BME280;52962;51.088;3.096;2022-07-05T08:04:10;102015.13;;;21.13;100.00
66164;BME280;52962;51.088;3.096;2022-07-05T08:06:41;102025.72;;;21.41;100.00
66164;BME280;52962;51.088;3.096;2022-07-05T08:09:09;102018.44;;;21.66;100.00
66164;BME280;52962;51.088;3.096;2022-07-05T08:11:42;102017.28;;;21.97;100.00
66164;BME280;52962;51.088;3.096;2022-07-05T08:14:10;102017.13;;;22.18;100.00
66164;BME280;52962;51.088;3.096;2022-07-05T08:16:38;102019.69;;;22.31;100.00
66164;BME280;52962;51.088;3.096;2022-07-05T08:19:09;102017.78;;;22.45;100.00
66164;BME280;52962;51.088;3.096;2022-07-05T08:21:55;102013.16;;;22.59;100.00
66164;BME280;52962;51.088;3.096;2022-07-05T08:24:23;102010.31;;;22.74;100.00
66164;BME280;52962;51.088;3.096;2022-07-05T08:26:51;102013.06;;;22.68;100.00
66164;BME280;52962;51.088;3.096;2022-07-05T08:29:19;102008.56;;;22.70;100.00
66164;BME280;52962;51.088;3.096;2022-07-05T08:31:51;102007.41;;;22.93;100.00
66164;BME280;52962;51.088;3.096;2022-07-05T08:34:19;102014.28;;;23.15;100.00
66164;BME280;52962;51.088;3.096;2022-07-05T08:36:47;102021.00;;;23.46;100.00
66164;BME280;52962;51.088;3.096;2022-07-05T08:39:17;102023.41;;;23.68;100.00
66164;BME280;52962;51.088;3.096;2022-07-05T08:41:48;102024.75;;;23.36;100.00
66164;BME280;52962;51.088;3.096;2022-07-05T08:44:18;102023.63;;;23.54;100.00
66164;BME280;52962;51.088;3.096;2022-07-05T08:46:47;102024.28;;;23.70;100.00
66164;BME280;52962;51.088;3.096;2022-07-05T08:49:21;102031.41;;;23.74;100.00
66164;BME280;52962;51.088;3.096;2022-07-05T08:51:50;102031.88;;;23.39;100.00
66164;BME280;52962;51.088;3.096;2022-07-05T08:54:20;102037.94;;;23.56;100.00
66164;BME280;52962;51.088;3.096;2022-07-05T08:56:49;102029.66;;;23.70;100.00
66164;BME280;52962;51.088;3.096;2022-07-05T08:59:37;102032.28;;;23.74;100.00
66164;BME280;52962;51.088;3.096;2022-07-05T09:02:05;102027.59;;;23.87;100.00
66164;BME280;52962;51.088;3.096;2022-07-05T09:04:35;102029.38;;;23.88;100.00
66164;BME280;52962;51.088;3.096;2022-07-05T09:07:10;102035.03;;;23.70;100.00
66164;BME280;52962;51.088;3.096;2022-07-05T09:09:42;102027.66;;;23.84;100.00
66164;BME280;52962;51.088;3.096;2022-07-05T09:12:12;102032.84;;;23.93;100.00
66164;BME280;52962;51.088;3.096;2022-07-05T09:14:52;102041.00;;;23.90;100.00
66164;BME280;52962;51.088;3.096;2022-07-05T09:17:21;102029.25;;;23.94;100.00
66164;BME280;52962;51.088;3.096;2022-07-05T09:20:07;102024.88;;;23.90;100.00
66164;BME280;52962;51.088;3.096;2022-07-05T09:22:45;102032.66;;;24.05;100.00
66164;BME280;52962;51.088;3.096;2022-07-05T09:25:22;102033.53;;;24.07;100.00
66164;BME280;52962;51.088;3.096;2022-07-05T09:27:52;102031.22;;;23.85;100.00
66164;BME280;52962;51.088;3.096;2022-07-05T09:30:25;102029.16;;;24.00;100.00
66164;BME280;52962;51.088;3.096;2022-07-05T09:33:00;102027.91;;;24.21;100.00
66164;BME280;52962;51.088;3.096;2022-07-05T09:35:28;102035.94;;;24.23;100.00
66164;BME280;52962;51.088;3.096;2022-07-05T09:37:56;102038.50;;;24.33;100.00
66164;BME280;52962;51.088;3.096;2022-07-05T09:40:25;102041.34;;;24.23;100.00
66164;BME280;52962;51.088;3.096;2022-07-05T09:43:10;102043.88;;;24.33;100.00
66164;BME280;52962;51.088;3.096;2022-07-05T09:45:38;102040.13;;;24.42;100.00
66164;BME280;52962;51.088;3.096;2022-07-05T09:48:07;102043.78;;;24.38;100.00
66164;BME280;52962;51.088;3.096;2022-07-05T09:51:04;102045.94;;;24.16;100.00
66164;BME280;52962;51.088;3.096;2022-07-05T09:53:53;102054.91;;;24.15;100.00
66164;BME280;52962;51.088;3.096;2022-07-05T09:56:28;102046.75;;;24.21;100.00
66164;BME280;52962;51.088;3.096;2022-07-05T09:59:12;102057.53;;;24.20;100.00
66164;BME280;52962;51.088;3.096;2022-07-05T10:01:40;102051.59;;;23.99;100.00
66164;BME280;52962;51.088;3.096;2022-07-05T10:04:08;102061.53;;;23.94;100.00
66164;BME280;52962;51.088;3.096;2022-07-05T10:06:36;102054.56;;;23.84;100.00
66164;BME280;52962;51.088;3.096;2022-07-05T10:09:05;102059.88;;;23.87;100.00
66164;BME280;52962;51.088;3.096;2022-07-05T10:11:35;102073.28;;;23.90;100.00
66164;BME280;52962;51.088;3.096;2022-07-05T10:14:10;102068.06;;;23.81;100.00
66164;BME280;52962;51.088;3.096;2022-07-05T10:16:38;102076.09;;;23.83;100.00
66164;BME280;52962;51.088;3.096;2022-07-05T10:19:08;102075.53;;;23.59;100.00
66164;BME280;52962;51.088;3.096;2022-07-05T10:21:40;102083.19;;;23.19;100.00
66164;BME280;52962;51.088;3.096;2022-07-05T10:24:33;102082.38;;;23.14;100.00
66164;BME280;52962;51.088;3.096;2022-07-05T10:27:05;102077.78;;;23.22;100.00
66164;BME280;52962;51.088;3.096;2022-07-05T10:29:34;102094.81;;;23.21;100.00
66164;BME280;52962;51.088;3.096;2022-07-05T10:32:06;102087.91;;;23.00;100.00
66164;BME280;52962;51.088;3.096;2022-07-05T10:34:37;102094.16;;;23.01;100.00
66164;BME280;52962;51.088;3.096;2022-07-05T10:37:26;102094.38;;;22.84;100.00
66164;BME280;52962;51.088;3.096;2022-07-05T10:39:57;102090.69;;;22.91;100.00
66164;BME280;52962;51.088;3.096;2022-07-05T10:42:29;102096.03;;;22.94;100.00
66164;BME280;52962;51.088;3.096;2022-07-05T10:44:59;102097.81;;;22.95;100.00
66164;BME280;52962;51.088;3.096;2022-07-05T10:47:27;102097.78;;;22.97;100.00
66164;BME280;52962;51.088;3.096;2022-07-05T10:50:01;102088.69;;;23.08;100.00
66164;BME280;52962;51.088;3.096;2022-07-05T10:52:30;102101.06;;;23.23;100.00
66164;BME280;52962;51.088;3.096;2022-07-05T10:55:19;102106.75;;;22.97;100.00
66164;BME280;52962;51.088;3.096;2022-07-05T10:58:21;102102.31;;;22.92;100.00
66164;BME280;52962;51.088;3.096;2022-07-05T11:04:26;102099.50;;;23.04;100.00
66164;BME280;52962;51.088;3.096;2022-07-05T11:06:57;102092.31;;;23.06;100.00
66164;BME280;52962;51.088;3.096;2022-07-05T11:09:25;102111.41;;;22.78;100.00
66164;BME280;52962;51.088;3.096;2022-07-05T11:12:03;102110.63;;;22.66;100.00
66164;BME280;52962;51.088;3.096;2022-07-05T11:14:52;102105.25;;;22.67;100.00
66164;BME280;52962;51.088;3.096;2022-07-05T11:17:22;102100.78;;;22.68;100.00
66164;BME280;52962;51.088;3.096;2022-07-05T11:20:17;102104.44;;;22.59;100.00
66164;BME280;52962;51.088;3.096;2022-07-05T11:23:09;102112.41;;;22.68;100.00
66164;BME280;52962;51.088;3.096;2022-07-05T11:25:40;102100.69;;;22.81;100.00
66164;BME280;52962;51.088;3.096;2022-07-05T11:28:16;102103.31;;;22.85;100.00
66164;BME280;52962;51.088;3.096;2022-07-05T11:30:48;102114.03;;;22.88;100.00
66164;BME280;52962;51.088;3.096;2022-07-05T11:33:26;102105.03;;;22.89;100.00
66164;BME280;52962;51.088;3.096;2022-07-05T11:35:55;102102.44;;;22.84;100.00
66164;BME280;52962;51.088;3.096;2022-07-05T11:38:23;102104.94;;;22.98;100.00
66164;BME280;52962;51.088;3.096;2022-07-05T11:41:12;102098.50;;;23.12;100.00
66164;BME280;52962;51.088;3.096;2022-07-05T11:43:40;102105.66;;;23.15;100.00
66164;BME280;52962;51.088;3.096;2022-07-05T11:46:10;102102.16;;;23.05;100.00
66164;BME280;52962;51.088;3.096;2022-07-05T11:48:59;102108.75;;;22.77;100.00
66164;BME280;52962;51.088;3.096;2022-07-05T11:51:28;102114.09;;;22.81;100.00
66164;BME280;52962;51.088;3.096;2022-07-05T11:53:56;102106.97;;;22.76;100.00
66164;BME280;52962;51.088;3.096;2022-07-05T11:56:44;102115.94;;;22.75;100.00
66164;BME280;52962;51.088;3.096;2022-07-05T11:59:19;102106.97;;;22.79;100.00
66164;BME280;52962;51.088;3.096;2022-07-05T12:01:49;102122.22;;;22.71;100.00
66164;BME280;52962;51.088;3.096;2022-07-05T12:04:24;102114.19;;;22.68;100.00
66164;BME280;52962;51.088;3.096;2022-07-05T12:06:52;102124.03;;;22.70;100.00
66164;BME280;52962;51.088;3.096;2022-07-05T12:09:24;102118.69;;;22.67;100.00
66164;BME280;52962;51.088;3.096;2022-07-05T12:11:53;102130.31;;;22.69;100.00
66164;BME280;52962;51.088;3.096;2022-07-05T12:14:47;102118.59;;;22.76;100.00
66164;BME280;52962;51.088;3.096;2022-07-05T12:17:18;102121.34;;;22.69;100.00
66164;BME280;52962;51.088;3.096;2022-07-05T12:19:53;102115.97;;;22.69;100.00
66164;BME280;52962;51.088;3.096;2022-07-05T12:22:32;102127.72;;;22.57;100.00
66164;BME280;52962;51.088;3.096;2022-07-05T12:25:02;102126.09;;;22.38;100.00
66164;BME280;52962;51.088;3.096;2022-07-05T12:27:32;102134.22;;;22.27;100.00
66164;BME280;52962;51.088;3.096;2022-07-05T12:30:01;102121.66;;;22.32;100.00
66164;BME280;52962;51.088;3.096;2022-07-05T12:32:32;102122.47;;;22.45;100.00
66164;BME280;52962;51.088;3.096;2022-07-05T12:35:00;102121.53;;;22.47;100.00
66164;BME280;52962;51.088;3.096;2022-07-05T12:37:32;102131.38;;;22.50;100.00
66164;BME280;52962;51.088;3.096;2022-07-05T12:40:03;102123.34;;;22.47;100.00
66164;BME280;52962;51.088;3.096;2022-07-05T12:42:32;102124.28;;;22.40;100.00
66164;BME280;52962;51.088;3.096;2022-07-05T12:45:10;102129.72;;;22.31;100.00
66164;BME280;52962;51.088;3.096;2022-07-05T12:47:50;102130.63;;;22.31;100.00
66164;BME280;52962;51.088;3.096;2022-07-05T12:50:21;102127.06;;;22.28;100.00
66164;BME280;52962;51.088;3.096;2022-07-05T12:52:58;102143.97;;;22.39;100.00
66164;BME280;52962;51.088;3.096;2022-07-05T12:55:34;102133.34;;;22.27;99.03
66164;BME280;52962;51.088;3.096;2022-07-05T12:58:20;102135.97;;;22.34;100.00
66164;BME280;52962;51.088;3.096;2022-07-05T13:00:48;102141.25;;;22.45;100.00
66164;BME280;52962;51.088;3.096;2022-07-05T13:03:17;102135.97;;;22.33;100.00